createdAt,value
2017-12-13T00:00:01.382Z,-0.4
2017-12-13T00:00:05.606Z,-0.39
2017-12-13T00:00:09.922Z,-0.4
2017-12-13T00:00:14.281Z,-0.39
2017-12-13T00:00:18.309Z,-0.4
2017-12-13T00:00:22.445Z,-0.39
2017-12-13T00:00:26.477Z,-0.39
2017-12-13T00:00:30.807Z,-0.4
2017-12-13T00:00:35.052Z,-0.39
2017-12-13T00:00:39.088Z,-0.41
2017-12-13T00:00:43.330Z,-0.4
2017-12-13T00:00:47.472Z,-0.41
2017-12-13T00:01:23.708Z,-0.42
2017-12-13T00:01:27.963Z,-0.42
2017-12-13T00:01:32.305Z,-0.43
2017-12-13T00:01:36.645Z,-0.42
2017-12-13T00:01:40.891Z,-0.43
2017-12-13T00:01:45.146Z,-0.43
2017-12-13T00:01:49.297Z,-0.43
2017-12-13T00:01:53.656Z,-0.43
2017-12-13T00:01:57.908Z,-0.44
2017-12-13T00:02:02.457Z,-0.44
2017-12-13T00:02:06.813Z,-0.43
2017-12-13T00:02:11.063Z,-0.44
2017-12-13T00:02:15.316Z,-0.45
2017-12-13T00:02:19.599Z,-0.45
2017-12-13T00:02:23.745Z,-0.44
2017-12-13T00:02:28.083Z,-0.44
2017-12-13T00:02:32.336Z,-0.44
2017-12-13T00:02:36.691Z,-0.44
2017-12-13T00:02:40.726Z,-0.45
2017-12-13T00:02:44.974Z,-0.45
2017-12-13T00:02:49.313Z,-0.44
2017-12-13T00:02:53.567Z,-0.45
2017-12-13T00:02:57.702Z,-0.45
2017-12-13T00:03:01.936Z,-0.45
2017-12-13T00:03:06.186Z,-0.46
2017-12-13T00:03:10.441Z,-0.47
2017-12-13T00:03:14.788Z,-0.45
2017-12-13T00:03:18.940Z,-0.46
2017-12-13T00:03:23.291Z,-0.47
2017-12-13T00:03:27.430Z,-0.46
2017-12-13T00:03:31.694Z,-0.47
2017-12-13T00:03:36.042Z,-0.47
2017-12-13T00:03:40.278Z,-0.46
2017-12-13T00:03:44.202Z,-0.46
2017-12-13T00:03:48.556Z,-0.47
2017-12-13T00:03:52.787Z,-0.47
2017-12-13T00:03:57.127Z,-0.47
2017-12-13T00:04:01.370Z,-0.47
2017-12-13T00:04:05.637Z,-0.47
2017-12-13T00:04:09.789Z,-0.48
2017-12-13T00:04:14.155Z,-0.48
2017-12-13T00:04:18.521Z,-0.48
2017-12-13T00:04:22.472Z,-0.48
2017-12-13T00:04:26.957Z,-0.48
2017-12-13T00:04:31.061Z,-0.48
2017-12-13T00:04:35.298Z,-0.47
2017-12-13T00:04:39.535Z,-0.48
2017-12-13T00:04:43.884Z,-0.49
2017-12-13T00:04:48.017Z,-0.48
2017-12-13T00:04:52.143Z,-0.48
2017-12-13T00:04:56.511Z,-0.48
2017-12-13T00:05:00.664Z,-0.49
2017-12-13T00:05:04.896Z,-0.48
2017-12-13T00:05:09.042Z,-0.49
2017-12-13T00:05:13.184Z,-0.49
2017-12-13T00:05:17.327Z,-0.49
2017-12-13T00:05:21.468Z,-0.49
2017-12-13T00:05:25.833Z,-0.49
2017-12-13T00:05:29.952Z,-0.49
2017-12-13T00:05:34.187Z,-0.49
2017-12-13T00:05:38.429Z,-0.5
2017-12-13T00:05:42.771Z,-0.5
2017-12-13T00:05:46.906Z,-0.49
2017-12-13T00:05:50.930Z,-0.5
2017-12-13T00:05:55.173Z,-0.5
2017-12-13T00:05:59.417Z,-0.5
2017-12-13T00:06:03.950Z,-0.5
2017-12-13T00:06:08.298Z,-0.5
2017-12-13T00:06:12.556Z,-0.5
2017-12-13T00:06:16.962Z,-0.5
2017-12-13T00:06:21.201Z,-0.5
2017-12-13T00:06:25.539Z,-0.52
2017-12-13T00:06:29.909Z,-0.51
2017-12-13T00:06:34.275Z,-0.51
2017-12-13T00:06:38.412Z,-0.5
2017-12-13T00:06:42.557Z,-0.51
2017-12-13T00:06:46.918Z,-0.5
2017-12-13T00:06:51.193Z,-0.5
2017-12-13T00:06:55.442Z,-0.51
2017-12-13T00:06:59.772Z,-0.52
2017-12-13T00:07:04.138Z,-0.52
2017-12-13T00:07:08.489Z,-0.52
2017-12-13T00:07:12.631Z,-0.52
2017-12-13T00:07:16.890Z,-0.52
2017-12-13T00:07:21.115Z,-0.52
2017-12-13T00:07:25.243Z,-0.52
2017-12-13T00:07:29.490Z,-0.53
2017-12-13T00:07:33.754Z,-0.52
2017-12-13T00:07:38.044Z,-0.53
2017-12-13T00:07:42.289Z,-0.52
2017-12-13T00:07:46.434Z,-0.53
2017-12-13T00:07:50.689Z,-0.53
2017-12-13T00:07:54.840Z,-0.54
2017-12-13T00:07:58.965Z,-0.53
2017-12-13T00:08:03.306Z,-0.53
2017-12-13T00:08:07.702Z,-0.53
2017-12-13T00:08:11.952Z,-0.53
2017-12-13T00:08:16.102Z,-0.54
2017-12-13T00:08:20.143Z,-0.53
2017-12-13T00:08:24.358Z,-0.54
2017-12-13T00:08:28.705Z,-0.54
2017-12-13T00:08:32.958Z,-0.55
2017-12-13T00:08:37.309Z,-0.54
2017-12-13T00:08:41.440Z,-0.55
2017-12-13T00:08:45.579Z,-0.54
2017-12-13T00:08:49.822Z,-0.54
2017-12-13T00:08:54.082Z,-0.54
2017-12-13T00:08:58.443Z,-0.54
2017-12-13T00:09:02.677Z,-0.55
2017-12-13T00:09:06.923Z,-0.54
2017-12-13T00:09:11.269Z,-0.55
2017-12-13T00:09:15.516Z,-0.55
2017-12-13T00:09:19.786Z,-0.55
2017-12-13T00:09:24.134Z,-0.56
2017-12-13T00:09:28.297Z,-0.55
2017-12-13T00:09:32.652Z,-0.55
2017-12-13T00:09:37.024Z,-0.55
2017-12-13T00:09:41.167Z,-0.54
2017-12-13T00:09:45.537Z,-0.57
2017-12-13T00:09:49.761Z,-0.56
2017-12-13T00:09:54.107Z,-0.56
2017-12-13T00:09:58.015Z,-0.56
2017-12-13T00:10:02.145Z,-0.57
2017-12-13T00:10:06.403Z,-0.56
2017-12-13T00:10:10.576Z,-0.57
2017-12-13T00:10:14.729Z,-0.57
2017-12-13T00:10:19.089Z,-0.56
2017-12-13T00:10:23.214Z,-0.57
2017-12-13T00:10:27.374Z,-0.57
2017-12-13T00:10:31.528Z,-0.57
2017-12-13T00:10:35.678Z,-0.57
2017-12-13T00:10:39.941Z,-0.57
2017-12-13T00:10:44.293Z,-0.58
2017-12-13T00:10:48.436Z,-0.57
2017-12-13T00:10:52.797Z,-0.58
2017-12-13T00:10:57.168Z,-0.57
2017-12-13T00:11:01.314Z,-0.58
2017-12-13T00:11:05.445Z,-0.58
2017-12-13T00:11:09.702Z,-0.58
2017-12-13T00:11:13.972Z,-0.59
2017-12-13T00:11:18.333Z,-0.58
2017-12-13T00:11:22.595Z,-0.58
2017-12-13T00:11:26.955Z,-0.58
2017-12-13T00:11:30.897Z,-0.59
2017-12-13T00:11:35.263Z,-0.58
2017-12-13T00:11:39.510Z,-0.58
2017-12-13T00:11:43.675Z,-0.59
2017-12-13T00:11:48.031Z,-0.58
2017-12-13T00:11:52.375Z,-0.58
2017-12-13T00:11:56.412Z,-0.58
2017-12-13T00:12:00.449Z,-0.58
2017-12-13T00:12:04.686Z,-0.58
2017-12-13T00:12:08.816Z,-0.59
2017-12-13T00:12:13.068Z,-0.59
2017-12-13T00:12:17.320Z,-0.59
2017-12-13T00:12:21.459Z,-0.59
2017-12-13T00:12:25.701Z,-0.59
2017-12-13T00:12:29.846Z,-0.59
2017-12-13T00:12:34.099Z,-0.59
2017-12-13T00:12:38.327Z,-0.59
2017-12-13T00:12:42.575Z,-0.6
2017-12-13T00:12:46.942Z,-0.59
2017-12-13T00:12:51.185Z,-0.59
2017-12-13T00:12:55.428Z,-0.59
2017-12-13T00:12:59.677Z,-0.59
2017-12-13T00:13:04.232Z,-0.6
2017-12-13T00:13:08.380Z,-0.59
2017-12-13T00:13:12.743Z,-0.59
2017-12-13T00:13:16.999Z,-0.6
2017-12-13T00:13:21.233Z,-0.6
2017-12-13T00:13:25.374Z,-0.6
2017-12-13T00:13:29.725Z,-0.6
2017-12-13T00:13:33.984Z,-0.61
2017-12-13T00:13:38.127Z,-0.6
2017-12-13T00:13:42.380Z,-0.6
2017-12-13T00:13:46.568Z,-0.61
2017-12-13T00:13:50.795Z,-0.6
2017-12-13T00:13:54.937Z,-0.61
2017-12-13T00:13:59.190Z,-0.61
2017-12-13T00:14:03.419Z,-0.6
2017-12-13T00:14:07.661Z,-0.6
2017-12-13T00:14:11.811Z,-0.6
2017-12-13T00:14:16.051Z,-0.61
2017-12-13T00:14:20.192Z,-0.61
2017-12-13T00:14:24.332Z,-0.61
2017-12-13T00:14:28.671Z,-0.61
2017-12-13T00:14:32.800Z,-0.61
2017-12-13T00:14:36.929Z,-0.61
2017-12-13T00:14:41.175Z,-0.61
2017-12-13T00:14:45.427Z,-0.61
2017-12-13T00:14:49.791Z,-0.6
2017-12-13T00:14:53.936Z,-0.61
2017-12-13T00:14:58.164Z,-0.62
2017-12-13T00:15:02.308Z,-0.61
2017-12-13T00:15:06.437Z,-0.61
2017-12-13T00:15:10.472Z,-0.62
2017-12-13T00:15:14.818Z,-0.61
2017-12-13T00:15:19.161Z,-0.61
2017-12-13T00:15:23.447Z,-0.61
2017-12-13T00:15:27.699Z,-0.61
2017-12-13T00:15:31.847Z,-0.62
2017-12-13T00:15:35.991Z,-0.61
2017-12-13T00:15:40.000Z,-0.61
2017-12-13T00:15:44.341Z,-0.62
2017-12-13T00:15:48.685Z,-0.61
2017-12-13T00:15:52.917Z,-0.61
2017-12-13T00:15:57.056Z,-0.62
2017-12-13T00:16:01.212Z,-0.62
2017-12-13T00:16:05.324Z,-0.61
2017-12-13T00:16:09.247Z,-0.62
2017-12-13T00:16:13.505Z,-0.61
2017-12-13T00:16:17.862Z,-0.61
2017-12-13T00:16:22.224Z,-0.62
2017-12-13T00:16:26.159Z,-0.61
2017-12-13T00:16:30.518Z,-0.6
2017-12-13T00:16:34.866Z,-0.61
2017-12-13T00:16:39.000Z,-0.61
2017-12-13T00:16:43.237Z,-0.62
2017-12-13T00:16:47.397Z,-0.62
2017-12-13T00:16:51.820Z,-0.61
2017-12-13T00:16:56.182Z,-0.62
2017-12-13T00:17:00.542Z,-0.62
2017-12-13T00:17:04.783Z,-0.62
2017-12-13T00:17:09.022Z,-0.61
2017-12-13T00:17:13.279Z,-0.62
2017-12-13T00:17:17.535Z,-0.61
2017-12-13T00:17:21.902Z,-0.62
2017-12-13T00:17:26.060Z,-0.61
2017-12-13T00:17:30.407Z,-0.62
2017-12-13T00:17:34.335Z,-0.61
2017-12-13T00:17:38.586Z,-0.61
2017-12-13T00:17:42.740Z,-0.6
2017-12-13T00:17:46.790Z,-0.61
2017-12-13T00:17:51.037Z,-0.6
2017-12-13T00:17:55.295Z,-0.62
2017-12-13T00:17:59.658Z,-0.61
2017-12-13T00:18:04.144Z,-0.61
2017-12-13T00:18:08.384Z,-0.6
2017-12-13T00:18:12.647Z,-0.61
2017-12-13T00:18:16.907Z,-0.6
2017-12-13T00:18:21.152Z,-0.6
2017-12-13T00:18:25.412Z,-0.6
2017-12-13T00:18:29.757Z,-0.61
2017-12-13T00:18:34.033Z,-0.61
2017-12-13T00:18:38.263Z,-0.61
2017-12-13T00:18:42.500Z,-0.61
2017-12-13T00:18:46.646Z,-0.6
2017-12-13T00:18:50.899Z,-0.61
2017-12-13T00:18:55.036Z,-0.61
2017-12-13T00:18:59.280Z,-0.61
2017-12-13T00:19:03.945Z,-0.61
2017-12-13T00:19:08.316Z,-0.6
2017-12-13T00:19:12.679Z,-0.6
2017-12-13T00:19:16.928Z,-0.6
2017-12-13T00:19:21.196Z,-0.61
2017-12-13T00:19:25.444Z,-0.6
2017-12-13T00:19:29.708Z,-0.6
2017-12-13T00:19:33.842Z,-0.6
2017-12-13T00:19:37.654Z,-0.6
2017-12-13T00:19:41.812Z,-0.6
2017-12-13T00:19:46.058Z,-0.6
2017-12-13T00:19:50.202Z,-0.6
2017-12-13T00:19:54.474Z,-0.6
2017-12-13T00:19:58.421Z,-0.61
2017-12-13T00:20:02.584Z,-0.6
2017-12-13T00:20:06.847Z,-0.6
2017-12-13T00:20:11.102Z,-0.6
2017-12-13T00:20:15.093Z,-0.6
2017-12-13T00:20:19.346Z,-0.61
2017-12-13T00:20:23.701Z,-0.6
2017-12-13T00:20:27.750Z,-0.6
2017-12-13T00:20:31.912Z,-0.6
2017-12-13T00:20:36.152Z,-0.6
2017-12-13T00:20:40.395Z,-0.6
2017-12-13T00:20:44.331Z,-0.6
2017-12-13T00:20:48.641Z,-0.59
2017-12-13T00:20:52.983Z,-0.6
2017-12-13T00:20:57.118Z,-0.59
2017-12-13T00:21:01.258Z,-0.59
2017-12-13T00:21:05.501Z,-0.6
2017-12-13T00:21:09.844Z,-0.6
2017-12-13T00:21:13.992Z,-0.59
2017-12-13T00:21:18.351Z,-0.59
2017-12-13T00:21:22.709Z,-0.59
2017-12-13T00:21:26.858Z,-0.59
2017-12-13T00:21:31.103Z,-0.6
2017-12-13T00:21:35.348Z,-0.59
2017-12-13T00:21:39.488Z,-0.58
2017-12-13T00:21:43.635Z,-0.59
2017-12-13T00:21:47.784Z,-0.6
2017-12-13T00:21:52.144Z,-0.59
2017-12-13T00:21:56.504Z,-0.59
2017-12-13T00:22:00.530Z,-0.59
2017-12-13T00:22:05.031Z,-0.59
2017-12-13T00:22:09.390Z,-0.59
2017-12-13T00:22:13.540Z,-0.6
2017-12-13T00:22:17.589Z,-0.59
2017-12-13T00:22:21.993Z,-0.59
2017-12-13T00:22:26.362Z,-0.6
2017-12-13T00:22:30.735Z,-0.58
2017-12-13T00:22:34.993Z,-0.59
2017-12-13T00:22:39.140Z,-0.59
2017-12-13T00:22:43.371Z,-0.59
2017-12-13T00:22:47.727Z,-0.59
2017-12-13T00:22:52.091Z,-0.58
2017-12-13T00:22:56.344Z,-0.58
2017-12-13T00:23:00.600Z,-0.59
2017-12-13T00:23:04.842Z,-0.59
2017-12-13T00:23:09.102Z,-0.58
2017-12-13T00:23:13.457Z,-0.58
2017-12-13T00:23:17.601Z,-0.58
2017-12-13T00:23:21.833Z,-0.59
2017-12-13T00:23:26.115Z,-0.58
2017-12-13T00:23:30.412Z,-0.58
2017-12-13T00:23:34.656Z,-0.58
2017-12-13T00:23:38.804Z,-0.59
2017-12-13T00:23:42.861Z,-0.58
2017-12-13T00:23:47.009Z,-0.58
2017-12-13T00:23:51.358Z,-0.58
2017-12-13T00:23:55.505Z,-0.58
2017-12-13T00:23:59.858Z,-0.57
2017-12-13T00:24:04.458Z,-0.57
2017-12-13T00:24:08.703Z,-0.58
2017-12-13T00:24:13.055Z,-0.58
2017-12-13T00:24:17.308Z,-0.57
2017-12-13T00:24:21.353Z,-0.58
2017-12-13T00:24:25.598Z,-0.58
2017-12-13T00:24:29.851Z,-0.57
2017-12-13T00:24:34.211Z,-0.57
2017-12-13T00:24:38.454Z,-0.58
2017-12-13T00:24:42.715Z,-0.59
2017-12-13T00:24:46.760Z,-0.57
2017-12-13T00:24:51.113Z,-0.57
2017-12-13T00:24:55.356Z,-0.57
2017-12-13T00:24:59.718Z,-0.58
2017-12-13T00:25:04.103Z,-0.57
2017-12-13T00:25:08.447Z,-0.57
2017-12-13T00:25:12.684Z,-0.58
2017-12-13T00:25:17.043Z,-0.56
2017-12-13T00:25:21.249Z,-0.57
2017-12-13T00:25:25.392Z,-0.57
2017-12-13T00:25:29.645Z,-0.57
2017-12-13T00:25:34.010Z,-0.57
2017-12-13T00:25:38.262Z,-0.57
2017-12-13T00:25:42.403Z,-0.57
2017-12-13T00:25:46.764Z,-0.56
2017-12-13T00:25:51.014Z,-0.56
2017-12-13T00:25:55.369Z,-0.56
2017-12-13T00:25:59.723Z,-0.57
2017-12-13T00:26:04.070Z,-0.56
2017-12-13T00:26:08.294Z,-0.56
2017-12-13T00:26:12.547Z,-0.56
2017-12-13T00:26:16.793Z,-0.57
2017-12-13T00:26:21.141Z,-0.56
2017-12-13T00:26:25.487Z,-0.56
2017-12-13T00:26:29.625Z,-0.55
2017-12-13T00:26:34.000Z,-0.55
2017-12-13T00:26:38.135Z,-0.55
2017-12-13T00:26:42.475Z,-0.56
2017-12-13T00:26:46.708Z,-0.56
2017-12-13T00:26:50.941Z,-0.56
2017-12-13T00:26:55.203Z,-0.56
2017-12-13T00:26:59.446Z,-0.55
2017-12-13T00:27:03.941Z,-0.56
2017-12-13T00:27:08.182Z,-0.55
2017-12-13T00:27:12.431Z,-0.55
2017-12-13T00:27:16.685Z,-0.56
2017-12-13T00:27:20.818Z,-0.56
2017-12-13T00:27:25.164Z,-0.56
2017-12-13T00:27:29.523Z,-0.55
2017-12-13T00:27:33.649Z,-0.56
2017-12-13T00:27:37.800Z,-0.55
2017-12-13T00:27:41.930Z,-0.55
2017-12-13T00:27:46.188Z,-0.56
2017-12-13T00:27:50.432Z,-0.54
2017-12-13T00:27:54.466Z,-0.55
2017-12-13T00:27:58.613Z,-0.56
2017-12-13T00:28:03.060Z,-0.56
2017-12-13T00:28:07.308Z,-0.56
2017-12-13T00:28:11.560Z,-0.56
2017-12-13T00:28:15.792Z,-0.55
2017-12-13T00:28:20.151Z,-0.55
2017-12-13T00:28:24.498Z,-0.56
2017-12-13T00:28:28.904Z,-0.56
2017-12-13T00:28:33.157Z,-0.54
2017-12-13T00:28:37.292Z,-0.55
2017-12-13T00:28:41.649Z,-0.54
2017-12-13T00:28:45.788Z,-0.54
2017-12-13T00:28:50.029Z,-0.54
2017-12-13T00:28:54.280Z,-0.54
2017-12-13T00:28:58.522Z,-0.53
2017-12-13T00:29:02.659Z,-0.55
2017-12-13T00:29:07.003Z,-0.54
2017-12-13T00:29:11.141Z,-0.53
2017-12-13T00:29:15.293Z,-0.54
2017-12-13T00:29:19.540Z,-0.55
2017-12-13T00:29:23.882Z,-0.53
2017-12-13T00:29:28.239Z,-0.54
2017-12-13T00:29:32.490Z,-0.54
2017-12-13T00:29:36.632Z,-0.54
2017-12-13T00:29:40.764Z,-0.54
2017-12-13T00:29:45.027Z,-0.54
2017-12-13T00:29:49.161Z,-0.54
2017-12-13T00:29:53.301Z,-0.53
2017-12-13T00:29:57.650Z,-0.54
2017-12-13T00:30:01.993Z,-0.54
2017-12-13T00:30:06.037Z,-0.54
2017-12-13T00:30:10.293Z,-0.53
2017-12-13T00:30:14.426Z,-0.53
2017-12-13T00:30:18.565Z,-0.53
2017-12-13T00:30:22.923Z,-0.52
2017-12-13T00:30:27.275Z,-0.52
2017-12-13T00:30:31.374Z,-0.52
2017-12-13T00:30:35.520Z,-0.53
2017-12-13T00:30:39.874Z,-0.53
2017-12-13T00:30:44.140Z,-0.52
2017-12-13T00:30:48.290Z,-0.52
2017-12-13T00:30:52.683Z,-0.52
2017-12-13T00:30:56.966Z,-0.52
2017-12-13T00:31:01.204Z,-0.51
2017-12-13T00:31:05.450Z,-0.52
2017-12-13T00:31:09.812Z,-0.51
2017-12-13T00:31:14.051Z,-0.5
2017-12-13T00:31:18.298Z,-0.5
2017-12-13T00:31:22.656Z,-0.5
2017-12-13T00:31:27.021Z,-0.5
2017-12-13T00:31:31.176Z,-0.49
2017-12-13T00:31:35.438Z,-0.5
2017-12-13T00:31:39.494Z,-0.49
2017-12-13T00:31:43.848Z,-0.49
2017-12-13T00:31:48.185Z,-0.49
2017-12-13T00:31:52.329Z,-0.49
2017-12-13T00:31:56.470Z,-0.48
2017-12-13T00:32:00.398Z,-0.49
2017-12-13T00:32:04.738Z,-0.48
2017-12-13T00:32:08.993Z,-0.48
2017-12-13T00:32:13.350Z,-0.48
2017-12-13T00:32:17.506Z,-0.47
2017-12-13T00:32:21.846Z,-0.48
2017-12-13T00:32:26.088Z,-0.48
2017-12-13T00:32:30.226Z,-0.47
2017-12-13T00:32:34.458Z,-0.47
2017-12-13T00:32:38.607Z,-0.47
2017-12-13T00:32:42.750Z,-0.46
2017-12-13T00:32:46.984Z,-0.47
2017-12-13T00:32:51.227Z,-0.47
2017-12-13T00:32:55.145Z,-0.45
2017-12-13T00:32:59.360Z,-0.46
2017-12-13T00:33:03.611Z,-0.45
2017-12-13T00:33:07.947Z,-0.45
2017-12-13T00:33:12.191Z,-0.45
2017-12-13T00:33:16.432Z,-0.45
2017-12-13T00:33:20.669Z,-0.45
2017-12-13T00:33:24.979Z,-0.45
2017-12-13T00:33:29.219Z,-0.45
2017-12-13T00:33:33.440Z,-0.45
2017-12-13T00:33:37.568Z,-0.45
2017-12-13T00:33:41.694Z,-0.44
2017-12-13T00:33:46.058Z,-0.45
2017-12-13T00:33:50.424Z,-0.45
2017-12-13T00:33:54.675Z,-0.44
2017-12-13T00:33:58.920Z,-0.44
2017-12-13T00:34:03.240Z,-0.44
2017-12-13T00:34:07.376Z,-0.44
2017-12-13T00:34:11.618Z,-0.44
2017-12-13T00:34:15.863Z,-0.44
2017-12-13T00:34:20.116Z,-0.43
2017-12-13T00:34:24.257Z,-0.43
2017-12-13T00:34:28.400Z,-0.43
2017-12-13T00:34:32.644Z,-0.43
2017-12-13T00:34:37.161Z,-0.44
2017-12-13T00:34:41.276Z,-0.43
2017-12-13T00:34:45.622Z,-0.43
2017-12-13T00:34:49.851Z,-0.43
2017-12-13T00:34:54.194Z,-0.42
2017-12-13T00:34:58.224Z,-0.43
2017-12-13T00:35:02.655Z,-0.43
2017-12-13T00:35:06.591Z,-0.44
2017-12-13T00:35:10.735Z,-0.43
2017-12-13T00:35:15.088Z,-0.42
2017-12-13T00:35:19.339Z,-0.43
2017-12-13T00:35:23.592Z,-0.42
2017-12-13T00:35:27.834Z,-0.42
2017-12-13T00:35:32.189Z,-0.41
2017-12-13T00:35:36.530Z,-0.42
2017-12-13T00:35:40.771Z,-0.42
2017-12-13T00:35:45.084Z,-0.41
2017-12-13T00:35:49.338Z,-0.41
2017-12-13T00:35:53.684Z,-0.41
2017-12-13T00:35:57.919Z,-0.42
2017-12-13T00:36:02.319Z,-0.43
2017-12-13T00:36:06.563Z,-0.42
2017-12-13T00:36:10.908Z,-0.42
2017-12-13T00:36:15.148Z,-0.41
2017-12-13T00:36:19.068Z,-0.41
2017-12-13T00:36:23.401Z,-0.41
2017-12-13T00:36:27.528Z,-0.41
2017-12-13T00:36:31.557Z,-0.4
2017-12-13T00:36:35.581Z,-0.41
2017-12-13T00:36:39.830Z,-0.41
2017-12-13T00:36:43.955Z,-0.41
2017-12-13T00:36:48.198Z,-0.4
2017-12-13T00:36:52.318Z,-0.4
2017-12-13T00:36:56.566Z,-0.4
2017-12-13T00:37:00.908Z,-0.42
2017-12-13T00:37:05.453Z,-0.4
2017-12-13T00:37:09.692Z,-0.4
2017-12-13T00:37:13.938Z,-0.41
2017-12-13T00:37:18.292Z,-0.4
2017-12-13T00:37:22.530Z,-0.41
2017-12-13T00:37:26.884Z,-0.4
2017-12-13T00:37:31.124Z,-0.39
2017-12-13T00:37:35.472Z,-0.39
2017-12-13T00:37:39.393Z,-0.4
2017-12-13T00:37:43.426Z,-0.4
2017-12-13T00:37:47.792Z,-0.39
2017-12-13T00:37:52.147Z,-0.4
2017-12-13T00:37:56.495Z,-0.4
2017-12-13T00:38:00.728Z,-0.39
2017-12-13T00:38:05.285Z,-0.41
2017-12-13T00:38:09.430Z,-0.39
2017-12-13T00:38:13.791Z,-0.39
2017-12-13T00:38:18.025Z,-0.4
2017-12-13T00:38:22.269Z,-0.4
2017-12-13T00:38:26.509Z,-0.39
2017-12-13T00:38:30.853Z,-0.39
2017-12-13T00:38:35.087Z,-0.39
2017-12-13T00:38:39.429Z,-0.39
2017-12-13T00:38:43.560Z,-0.39
2017-12-13T00:38:47.788Z,-0.39
2017-12-13T00:38:52.129Z,-0.4
2017-12-13T00:38:56.368Z,-0.39
2017-12-13T00:39:00.612Z,-0.39
2017-12-13T00:39:04.765Z,-0.39
2017-12-13T00:39:09.120Z,-0.39
2017-12-13T00:39:13.353Z,-0.39
2017-12-13T00:39:17.704Z,-0.38
2017-12-13T00:39:21.842Z,-0.39
2017-12-13T00:39:26.090Z,-0.39
2017-12-13T00:39:30.344Z,-0.38
2017-12-13T00:39:34.574Z,-0.39
2017-12-13T00:39:38.606Z,-0.39
2017-12-13T00:39:42.859Z,-0.39
2017-12-13T00:39:47.101Z,-0.4
2017-12-13T00:39:51.448Z,-0.39
2017-12-13T00:39:55.803Z,-0.38
2017-12-13T00:39:59.944Z,-0.38
2017-12-13T00:40:04.530Z,-0.38
2017-12-13T00:40:08.662Z,-0.39
2017-12-13T00:40:12.908Z,-0.39
2017-12-13T00:40:17.247Z,-0.39
2017-12-13T00:40:21.374Z,-0.39
2017-12-13T00:40:25.510Z,-0.39
2017-12-13T00:40:29.856Z,-0.38
2017-12-13T00:40:34.208Z,-0.38
2017-12-13T00:40:38.605Z,-0.38
2017-12-13T00:40:42.742Z,-0.39
2017-12-13T00:40:46.892Z,-0.39
2017-12-13T00:40:50.719Z,-0.38
2017-12-13T00:40:54.956Z,-0.38
2017-12-13T00:40:59.303Z,-0.38
2017-12-13T00:41:03.325Z,-0.37
2017-12-13T00:41:07.679Z,-0.38
2017-12-13T00:41:11.727Z,-0.38
2017-12-13T00:41:15.868Z,-0.38
2017-12-13T00:41:20.093Z,-0.38
2017-12-13T00:41:24.328Z,-0.38
2017-12-13T00:41:28.562Z,-0.38
2017-12-13T00:41:32.698Z,-0.38
2017-12-13T00:41:36.945Z,-0.37
2017-12-13T00:41:40.871Z,-0.37
2017-12-13T00:41:45.102Z,-0.38
2017-12-13T00:41:49.334Z,-0.37
2017-12-13T00:41:53.370Z,-0.38
2017-12-13T00:41:57.507Z,-0.37
2017-12-13T00:42:01.737Z,-0.39
2017-12-13T00:42:06.120Z,-0.38
2017-12-13T00:42:10.048Z,-0.38
2017-12-13T00:42:14.292Z,-0.38
2017-12-13T00:42:18.638Z,-0.38
2017-12-13T00:42:22.556Z,-0.37
2017-12-13T00:42:26.787Z,-0.37
2017-12-13T00:42:31.131Z,-0.39
2017-12-13T00:42:35.368Z,-0.38
2017-12-13T00:42:39.506Z,-0.37
2017-12-13T00:42:43.845Z,-0.38
2017-12-13T00:42:48.141Z,-0.37
2017-12-13T00:42:52.520Z,-0.39
2017-12-13T00:42:56.870Z,-0.38
2017-12-13T00:43:01.075Z,-0.37
2017-12-13T00:43:05.111Z,-0.36
2017-12-13T00:43:09.024Z,-0.37
2017-12-13T00:43:13.169Z,-0.37
2017-12-13T00:43:17.322Z,-0.38
2017-12-13T00:43:21.574Z,-0.37
2017-12-13T00:43:25.705Z,-0.38
2017-12-13T00:43:29.755Z,-0.36
2017-12-13T00:43:34.009Z,-0.36
2017-12-13T00:43:38.158Z,-0.37
2017-12-13T00:43:42.426Z,-0.36
2017-12-13T00:43:46.677Z,-0.37
2017-12-13T00:43:50.722Z,-0.36
2017-12-13T00:43:54.966Z,-0.37
2017-12-13T00:43:59.103Z,-0.36
2017-12-13T00:44:03.334Z,-0.36
2017-12-13T00:44:07.477Z,-0.36
2017-12-13T00:44:11.613Z,-0.36
2017-12-13T00:44:15.870Z,-0.36
2017-12-13T00:44:20.226Z,-0.36
2017-12-13T00:44:24.472Z,-0.36
2017-12-13T00:44:28.620Z,-0.36
2017-12-13T00:44:33.013Z,-0.36
2017-12-13T00:44:37.372Z,-0.36
2017-12-13T00:44:41.630Z,-0.36
2017-12-13T00:44:45.756Z,-0.37
2017-12-13T00:44:49.994Z,-0.36
2017-12-13T00:44:54.250Z,-0.37
2017-12-13T00:44:58.610Z,-0.36
2017-12-13T00:45:02.755Z,-0.36
2017-12-13T00:45:06.780Z,-0.36
2017-12-13T00:45:10.823Z,-0.36
2017-12-13T00:45:14.956Z,-0.36
2017-12-13T00:45:19.220Z,-0.36
2017-12-13T00:45:23.582Z,-0.36
2017-12-13T00:45:27.716Z,-0.36
2017-12-13T00:45:32.055Z,-0.36
2017-12-13T00:45:36.403Z,-0.36
2017-12-13T00:45:40.643Z,-0.35
2017-12-13T00:45:44.772Z,-0.35
2017-12-13T00:45:49.128Z,-0.35
2017-12-13T00:45:53.492Z,-0.35
2017-12-13T00:45:57.728Z,-0.36
2017-12-13T00:46:02.229Z,-0.35
2017-12-13T00:46:06.596Z,-0.35
2017-12-13T00:46:10.726Z,-0.35
2017-12-13T00:46:15.074Z,-0.34
2017-12-13T00:46:19.424Z,-0.35
2017-12-13T00:46:23.669Z,-0.36
2017-12-13T00:46:27.919Z,-0.35
2017-12-13T00:46:32.058Z,-0.35
2017-12-13T00:46:36.308Z,-0.36
2017-12-13T00:46:40.549Z,-0.35
2017-12-13T00:46:44.679Z,-0.36
2017-12-13T00:46:48.922Z,-0.35
2017-12-13T00:46:52.856Z,-0.35
2017-12-13T00:46:57.081Z,-0.36
2017-12-13T00:47:01.425Z,-0.35
2017-12-13T00:47:05.667Z,-0.35
2017-12-13T00:47:09.908Z,-0.35
2017-12-13T00:47:14.313Z,-0.36
2017-12-13T00:47:18.545Z,-0.35
2017-12-13T00:47:22.463Z,-0.36
2017-12-13T00:47:26.823Z,-0.36
2017-12-13T00:47:31.065Z,-0.35
2017-12-13T00:47:35.194Z,-0.35
2017-12-13T00:47:39.330Z,-0.36
2017-12-13T00:47:43.363Z,-0.36
2017-12-13T00:47:47.640Z,-0.36
2017-12-13T00:47:51.877Z,-0.36
2017-12-13T00:47:56.115Z,-0.36
2017-12-13T00:48:00.259Z,-0.37
2017-12-13T00:48:04.517Z,-0.36
2017-12-13T00:48:08.766Z,-0.36
2017-12-13T00:48:12.806Z,-0.36
2017-12-13T00:48:17.151Z,-0.36
2017-12-13T00:48:21.293Z,-0.36
2017-12-13T00:48:25.639Z,-0.36
2017-12-13T00:48:29.987Z,-0.36
2017-12-13T00:48:34.122Z,-0.36
2017-12-13T00:48:38.473Z,-0.36
2017-12-13T00:48:42.808Z,-0.36
2017-12-13T00:48:47.044Z,-0.37
2017-12-13T00:48:51.296Z,-0.36
2017-12-13T00:48:55.642Z,-0.35
2017-12-13T00:48:59.790Z,-0.36
2017-12-13T00:49:04.231Z,-0.36
2017-12-13T00:49:08.602Z,-0.36
2017-12-13T00:49:12.913Z,-0.36
2017-12-13T00:49:17.170Z,-0.37
2017-12-13T00:49:21.411Z,-0.36
2017-12-13T00:49:25.542Z,-0.37
2017-12-13T00:49:29.882Z,-0.36
2017-12-13T00:49:34.006Z,-0.36
2017-12-13T00:49:38.306Z,-0.36
2017-12-13T00:49:42.335Z,-0.36
2017-12-13T00:49:46.358Z,-0.36
2017-12-13T00:49:50.600Z,-0.37
2017-12-13T00:49:54.835Z,-0.37
2017-12-13T00:49:59.172Z,-0.37
2017-12-13T00:50:03.434Z,-0.36
2017-12-13T00:50:07.717Z,-0.36
2017-12-13T00:50:11.657Z,-0.36
2017-12-13T00:50:15.898Z,-0.37
2017-12-13T00:50:20.125Z,-0.37
2017-12-13T00:50:24.167Z,-0.37
2017-12-13T00:50:28.408Z,-0.36
2017-12-13T00:50:32.677Z,-0.36
2017-12-13T00:50:37.042Z,-0.37
2017-12-13T00:50:41.285Z,-0.36
2017-12-13T00:50:45.533Z,-0.37
2017-12-13T00:50:49.675Z,-0.37
2017-12-13T00:50:53.926Z,-0.37
2017-12-13T00:50:58.060Z,-0.37
2017-12-13T00:51:02.091Z,-0.37
2017-12-13T00:51:06.121Z,-0.37
2017-12-13T00:51:10.369Z,-0.37
2017-12-13T00:51:14.519Z,-0.37
2017-12-13T00:51:18.660Z,-0.38
2017-12-13T00:51:23.004Z,-0.37
2017-12-13T00:51:27.336Z,-0.38
2017-12-13T00:51:31.569Z,-0.38
2017-12-13T00:51:35.596Z,-0.37
2017-12-13T00:51:39.720Z,-0.37
2017-12-13T00:51:43.850Z,-0.38
2017-12-13T00:51:48.198Z,-0.38
2017-12-13T00:51:52.436Z,-0.38
2017-12-13T00:51:56.775Z,-0.37
2017-12-13T00:52:01.122Z,-0.37
2017-12-13T00:52:05.354Z,-0.38
2017-12-13T00:52:09.509Z,-0.38
2017-12-13T00:52:13.853Z,-0.38
2017-12-13T00:52:18.097Z,-0.38
2017-12-13T00:52:22.434Z,-0.39
2017-12-13T00:52:26.558Z,-0.37
2017-12-13T00:52:30.802Z,-0.38
2017-12-13T00:52:35.161Z,-0.39
2017-12-13T00:52:39.289Z,-0.38
2017-12-13T00:52:43.211Z,-0.38
2017-12-13T00:52:47.574Z,-0.39
2017-12-13T00:52:51.931Z,-0.39
2017-12-13T00:52:56.235Z,-0.39
2017-12-13T00:53:00.274Z,-0.39
2017-12-13T00:53:04.712Z,-0.39
2017-12-13T00:53:08.991Z,-0.38
2017-12-13T00:53:13.138Z,-0.39
2017-12-13T00:53:17.385Z,-0.39
2017-12-13T00:53:21.741Z,-0.39
2017-12-13T00:53:25.760Z,-0.39
2017-12-13T00:53:29.990Z,-0.39
2017-12-13T00:53:34.245Z,-0.38
2017-12-13T00:53:38.373Z,-0.39
2017-12-13T00:53:42.515Z,-0.39
2017-12-13T00:53:46.871Z,-0.39
2017-12-13T00:53:51.014Z,-0.39
2017-12-13T00:53:55.358Z,-0.4
2017-12-13T00:53:59.702Z,-0.4
2017-12-13T00:54:04.085Z,-0.4
2017-12-13T00:54:08.438Z,-0.39
2017-12-13T00:54:12.846Z,-0.4
2017-12-13T00:54:17.184Z,-0.4
2017-12-13T00:54:21.423Z,-0.4
2017-12-13T00:54:25.564Z,-0.41
2017-12-13T00:54:29.864Z,-0.4
2017-12-13T00:54:34.211Z,-0.39
2017-12-13T00:54:38.442Z,-0.39
2017-12-13T00:54:42.789Z,-0.4
2017-12-13T00:54:46.818Z,-0.4
2017-12-13T00:54:51.053Z,-0.4
2017-12-13T00:54:55.302Z,-0.4
2017-12-13T00:54:59.646Z,-0.4
2017-12-13T00:55:03.995Z,-0.4
2017-12-13T00:55:08.132Z,-0.41
2017-12-13T00:55:12.495Z,-0.41
2017-12-13T00:55:16.845Z,-0.4